Time;durP1;ratioP1;P1;durP2;ratioP2;P2;SDS_P1;SDS_P2;PMS_P1;PMS_P2;Temp;Humidity;BMP_temperature;BMP_pressure;BME280_temperature;BME280_humidity;BME280_pressure;Samples;Min_cycle;Max_cycle;Signal;HPM_P1;HPM_P2
2021/12/28 00:00:28;;;;;;;27.57;16.60;;;3.90;99.90;;;;;;5097474;28;20043;-84
2021/12/28 00:02:55;;;;;;;27.10;17.60;;;3.90;99.90;;;;;;5096337;28;20039;-85
2021/12/28 00:05:23;;;;;;;30.80;17.93;;;3.90;99.90;;;;;;5076788;28;20048;-84
2021/12/28 00:07:50;;;;;;;30.10;17.87;;;3.90;99.90;;;;;;5097683;28;20066;-84
2021/12/28 00:10:18;;;;;;;27.27;17.57;;;4.00;99.90;;;;;;5097678;28;20040;-85
2021/12/28 00:12:45;;;;;;;27.90;16.97;;;4.00;99.90;;;;;;5098322;28;20047;-84
2021/12/28 00:15:47;;;;;;;27.80;17.83;;;4.00;99.90;;;;;;5097667;28;20043;-83
2021/12/28 00:18:04;;;;;;;31.23;18.47;;;4.00;99.90;;;;;;5116116;28;20051;-84
2021/12/28 00:20:44;;;;;;;29.03;18.83;;;4.00;99.90;;;;;;5078957;28;20044;-83
2021/12/28 00:23:17;;;;;;;27.47;17.00;;;4.00;99.90;;;;;;5112130;28;20055;-84
2021/12/28 00:25:43;;;;;;;28.40;18.67;;;4.00;99.90;;;;;;5097230;27;20044;-84
2021/12/28 00:28:09;;;;;;;34.97;19.40;;;4.00;99.90;;;;;;5100533;27;20039;-84
2021/12/28 00:30:35;;;;;;;36.93;19.87;;;4.10;99.90;;;;;;5083747;28;20096;-84
2021/12/28 00:33:02;;;;;;;29.40;18.13;;;4.10;99.90;;;;;;5099757;27;20031;-84
2021/12/28 00:35:31;;;;;;;36.87;21.43;;;4.10;99.90;;;;;;5100051;27;20035;-85
2021/12/28 00:37:57;;;;;;;41.40;22.70;;;4.10;99.90;;;;;;5101543;28;20050;-85
2021/12/28 00:40:23;;;;;;;45.17;24.30;;;4.10;99.90;;;;;;5098693;28;20031;-86
2021/12/28 00:42:49;;;;;;;38.30;22.30;;;4.10;99.90;;;;;;5077761;28;20157;-84
2021/12/28 00:45:15;;;;;;;34.43;21.07;;;4.10;99.90;;;;;;5082187;28;20027;-86
2021/12/28 00:47:41;;;;;;;37.90;21.17;;;4.10;99.90;;;;;;5096530;28;20031;-85
2021/12/28 00:50:10;;;;;;;33.93;19.60;;;4.20;99.90;;;;;;5081216;28;20095;-85
2021/12/28 00:52:36;;;;;;;38.67;21.27;;;4.20;99.90;;;;;;5077630;27;20043;-86
2021/12/28 00:55:04;;;;;;;35.07;21.17;;;4.20;99.90;;;;;;5083710;27;20078;-85
2021/12/28 00:57:30;;;;;;;33.77;20.90;;;4.20;99.90;;;;;;5104677;27;20078;-85
2021/12/28 00:59:55;;;;;;;40.47;21.43;;;4.20;99.90;;;;;;5087587;27;20047;-85
2021/12/28 01:02:21;;;;;;;38.50;22.60;;;4.20;99.90;;;;;;5086567;27;20047;-86
2021/12/28 01:04:47;;;;;;;31.97;20.70;;;4.20;99.90;;;;;;5087272;27;20061;-86
2021/12/28 01:07:13;;;;;;;33.70;20.40;;;4.20;99.90;;;;;;5084655;27;20143;-83
2021/12/28 01:09:41;;;;;;;35.00;20.87;;;4.20;99.90;;;;;;5080103;27;20299;-86
2021/12/28 01:12:07;;;;;;;38.27;22.80;;;4.20;99.90;;;;;;5070322;27;20076;-85
2021/12/28 01:14:33;;;;;;;37.33;21.67;;;4.20;99.90;;;;;;5102666;27;20051;-86
2021/12/28 01:16:59;;;;;;;47.10;26.00;;;4.20;99.90;;;;;;5086361;27;20062;-86
2021/12/28 01:19:26;;;;;;;61.30;29.80;;;4.20;99.90;;;;;;5104827;27;20092;-85
2021/12/28 01:21:51;;;;;;;67.93;33.03;;;4.20;99.90;;;;;;5105134;27;20044;-86
2021/12/28 01:24:18;;;;;;;66.70;32.27;;;4.40;99.90;;;;;;5084887;27;20043;-87
2021/12/28 01:26:45;;;;;;;95.53;38.40;;;4.50;99.90;;;;;;5083067;28;20052;-85
2021/12/28 01:29:11;;;;;;;79.70;35.80;;;4.60;99.90;;;;;;5096244;28;20130;-84
2021/12/28 01:31:37;;;;;;;106.47;41.40;;;4.60;99.90;;;;;;5081898;28;20090;-85
2021/12/28 01:34:07;;;;;;;93.30;40.40;;;4.70;99.90;;;;;;5083119;28;20044;-86
2021/12/28 01:36:33;;;;;;;111.90;42.27;;;4.80;99.90;;;;;;5116613;28;20065;-86
2021/12/28 01:39:00;;;;;;;106.97;41.90;;;4.80;99.90;;;;;;5083186;28;20040;-85
2021/12/28 01:41:26;;;;;;;98.23;41.77;;;4.90;99.90;;;;;;5081426;28;20079;-86
2021/12/28 01:44:01;;;;;;;119.93;43.97;;;4.90;99.90;;;;;;5080201;28;20051;-85
2021/12/28 01:46:27;;;;;;;117.93;44.53;;;4.90;99.90;;;;;;5113455;28;20047;-86
2021/12/28 01:48:53;;;;;;;131.80;46.73;;;4.90;99.90;;;;;;5100843;28;20096;-86
2021/12/28 01:51:22;;;;;;;123.10;45.37;;;4.90;99.90;;;;;;5083772;28;20097;-86
2021/12/28 01:53:52;;;;;;;136.57;46.37;;;5.00;99.90;;;;;;5099472;28;20438;-86
2021/12/28 01:56:24;;;;;;;120.17;44.37;;;5.00;99.90;;;;;;5098693;28;20036;-85
2021/12/28 01:58:51;;;;;;;167.23;50.87;;;5.00;99.90;;;;;;5093337;28;20070;-87
2021/12/28 02:01:17;;;;;;;194.77;56.97;;;5.00;99.90;;;;;;5118484;28;20058;-85
2021/12/28 02:03:43;;;;;;;170.30;51.70;;;5.00;99.90;;;;;;5097440;28;20043;-85
2021/12/28 02:06:09;;;;;;;210.17;60.17;;;5.10;99.90;;;;;;5065517;28;20032;-85
2021/12/28 02:08:39;;;;;;;207.60;57.03;;;5.10;99.90;;;;;;5078280;28;20047;-87
2021/12/28 02:11:06;;;;;;;199.43;58.47;;;5.10;99.90;;;;;;5095701;28;20075;-86
2021/12/28 02:13:32;;;;;;;243.77;62.10;;;5.10;99.90;;;;;;5083543;28;20045;-86
2021/12/28 02:15:59;;;;;;;316.63;70.60;;;5.10;99.90;;;;;;5098190;28;20107;-86
2021/12/28 02:18:27;;;;;;;242.47;61.13;;;5.10;99.90;;;;;;5081614;28;20055;-84
2021/12/28 02:20:54;;;;;;;151.27;48.23;;;5.10;99.90;;;;;;5095710;28;20039;-85
2021/12/28 02:23:20;;;;;;;152.97;47.53;;;5.20;99.90;;;;;;5088062;28;20554;-86
2021/12/28 02:25:47;;;;;;;139.03;47.20;;;5.20;99.90;;;;;;5081703;28;20102;-86
2021/12/28 02:28:14;;;;;;;230.90;58.43;;;5.20;99.90;;;;;;5102411;27;20051;-86
2021/12/28 02:30:44;;;;;;;208.50;57.10;;;5.30;99.90;;;;;;5084048;27;20039;-80
2021/12/28 02:33:10;;;;;;;227.23;60.37;;;5.40;99.90;;;;;;5119451;27;20045;-84
2021/12/28 02:35:37;;;;;;;205.43;56.57;;;5.40;99.90;;;;;;5085728;27;20513;-85
2021/12/28 02:38:05;;;;;;;160.83;50.57;;;5.50;99.90;;;;;;5101454;27;20087;-85
2021/12/28 02:40:33;;;;;;;148.07;46.57;;;5.60;99.90;;;;;;5120491;27;20540;-84
2021/12/28 02:43:00;;;;;;;155.60;49.70;;;5.60;99.90;;;;;;5118272;27;20047;-84
2021/12/28 02:45:38;;;;;;;214.73;60.10;;;5.60;99.90;;;;;;5077385;27;20042;-84
2021/12/28 02:48:05;;;;;;;190.30;53.77;;;5.60;99.90;;;;;;5084716;27;20489;-84
2021/12/28 02:50:34;;;;;;;171.43;51.40;;;5.60;99.90;;;;;;5102515;27;20049;-85
2021/12/28 02:53:00;;;;;;;140.27;49.07;;;5.60;99.90;;;;;;5101119;27;20061;-84
2021/12/28 02:55:29;;;;;;;142.57;48.47;;;5.70;99.90;;;;;;5082836;27;20471;-83
2021/12/28 02:57:58;;;;;;;151.83;49.23;;;5.70;99.90;;;;;;5100925;27;20065;-82
2021/12/28 03:00:32;;;;;;;191.07;55.33;;;5.70;99.90;;;;;;5102944;27;20042;-84
2021/12/28 03:02:59;;;;;;;147.97;48.33;;;5.80;99.90;;;;;;5119362;27;20039;-83
2021/12/28 03:05:24;;;;;;;162.03;51.87;;;5.80;99.90;;;;;;5086033;27;20103;-83
2021/12/28 03:07:50;;;;;;;152.23;51.87;;;5.70;99.90;;;;;;5101445;27;20066;-83
2021/12/28 03:10:16;;;;;;;152.17;52.07;;;5.80;99.90;;;;;;5085679;27;20070;-83
2021/12/28 03:12:42;;;;;;;175.93;56.20;;;5.80;99.90;;;;;;5085500;27;20035;-84
2021/12/28 03:15:08;;;;;;;148.10;50.20;;;5.80;99.90;;;;;;5082456;27;20047;-84
2021/12/28 03:17:34;;;;;;;133.97;47.30;;;5.80;99.90;;;;;;5079605;27;20055;-83
2021/12/28 03:20:00;;;;;;;163.73;50.10;;;5.80;99.90;;;;;;5101097;27;20083;-83
2021/12/28 03:22:25;;;;;;;145.07;49.70;;;5.90;99.90;;;;;;5076534;27;20052;-83
2021/12/28 03:24:51;;;;;;;137.63;46.60;;;5.90;99.90;;;;;;5067376;27;20050;-84
2021/12/28 03:27:17;;;;;;;148.37;48.67;;;5.90;99.90;;;;;;5095318;27;20066;-85
2021/12/28 03:29:43;;;;;;;175.20;51.77;;;5.90;99.90;;;;;;5066032;27;20043;-84
2021/12/28 03:32:09;;;;;;;167.73;53.40;;;5.90;99.90;;;;;;5085767;27;20035;-84
2021/12/28 03:34:35;;;;;;;141.97;49.60;;;5.90;99.90;;;;;;5084642;27;20044;-84
2021/12/28 03:37:01;;;;;;;134.53;49.20;;;5.90;99.90;;;;;;5065921;27;20040;-83
2021/12/28 03:39:26;;;;;;;167.63;52.43;;;5.90;99.90;;;;;;5085428;27;20046;-84
2021/12/28 03:41:52;;;;;;;136.43;45.90;;;5.90;99.90;;;;;;5066117;27;20300;-84
2021/12/28 03:44:18;;;;;;;127.97;48.07;;;5.80;99.90;;;;;;5101145;27;20082;-84
2021/12/28 03:46:44;;;;;;;139.87;46.63;;;5.80;99.90;;;;;;5079979;27;20048;-84
2021/12/28 03:49:09;;;;;;;117.50;44.10;;;5.80;99.90;;;;;;5070802;27;20127;-85
2021/12/28 03:51:35;;;;;;;154.80;51.47;;;5.80;99.90;;;;;;5077216;27;20035;-83
2021/12/28 03:54:01;;;;;;;191.13;56.23;;;5.80;99.90;;;;;;5101251;27;20137;-83
2021/12/28 03:56:27;;;;;;;183.20;54.27;;;5.80;99.90;;;;;;5085679;27;20054;-84
2021/12/28 03:58:53;;;;;;;234.90;59.57;;;5.80;99.90;;;;;;5093127;27;20054;-84
2021/12/28 04:01:23;;;;;;;212.10;58.23;;;5.80;99.90;;;;;;5108480;27;20045;-84
2021/12/28 04:03:49;;;;;;;362.53;72.40;;;5.70;99.90;;;;;;5108347;27;20055;-84
2021/12/28 04:06:18;;;;;;;390.60;73.67;;;5.70;99.90;;;;;;5085505;27;20046;-84
2021/12/28 04:08:44;;;;;;;453.50;80.97;;;5.70;99.90;;;;;;5097993;27;20074;-84
2021/12/28 04:13:47;;;;;;;468.30;78.27;;;5.70;99.90;;;;;;5119423;27;20043;-84
2021/12/28 04:16:13;;;;;;;326.43;60.20;;;5.60;99.90;;;;;;5082014;27;20088;-85
2021/12/28 04:18:39;;;;;;;328.57;65.33;;;5.70;99.90;;;;;;5099110;27;20107;-84
2021/12/28 04:21:05;;;;;;;441.53;78.63;;;5.70;99.90;;;;;;5101655;27;20050;-84
2021/12/28 04:23:31;;;;;;;346.33;67.10;;;5.70;99.90;;;;;;5100385;27;20493;-85
2021/12/28 04:25:57;;;;;;;283.67;58.37;;;5.70;99.90;;;;;;5100521;28;20043;-84
2021/12/28 04:28:23;;;;;;;301.13;67.13;;;5.80;99.90;;;;;;5097261;27;20047;-84
2021/12/28 04:30:49;;;;;;;334.67;64.27;;;5.70;99.90;;;;;;5102251;27;20039;-83
2021/12/28 04:33:14;;;;;;;139.90;46.43;;;5.70;99.90;;;;;;5065109;27;20047;-83
2021/12/28 04:35:40;;;;;;;623.77;92.67;;;5.70;99.90;;;;;;5072747;28;20031;-83
2021/12/28 04:38:06;;;;;;;325.83;54.27;;;5.60;99.90;;;;;;5081289;27;20047;-83
2021/12/28 04:40:32;;;;;;;268.40;53.90;;;5.60;99.90;;;;;;5080476;28;20043;-83
2021/12/28 04:42:57;;;;;;;458.97;68.10;;;5.50;99.90;;;;;;5101455;28;20043;-86
2021/12/28 04:45:23;;;;;;;262.77;52.23;;;5.50;99.90;;;;;;5078887;28;20073;-84
2021/12/28 04:47:49;;;;;;;243.90;47.43;;;5.40;99.90;;;;;;5097669;28;20047;-84
2021/12/28 04:50:16;;;;;;;273.07;51.03;;;5.40;99.90;;;;;;5082543;28;20051;-84
2021/12/28 04:52:43;;;;;;;323.13;58.83;;;5.40;99.90;;;;;;5100640;28;20047;-85
2021/12/28 04:55:13;;;;;;;231.47;50.73;;;5.30;99.90;;;;;;5083634;28;20082;-83
2021/12/28 04:57:42;;;;;;;176.03;42.23;;;5.30;99.90;;;;;;5097081;28;20047;-84
2021/12/28 05:00:16;;;;;;;161.90;43.03;;;5.40;99.90;;;;;;5086581;28;20051;-84
2021/12/28 05:02:42;;;;;;;125.97;38.53;;;5.30;99.90;;;;;;5098885;28;20059;-84
2021/12/28 05:05:09;;;;;;;255.57;54.63;;;5.30;99.90;;;;;;5076697;28;20047;-85
2021/12/28 05:07:35;;;;;;;157.97;45.13;;;5.30;99.90;;;;;;5099055;28;20043;-84
2021/12/28 05:10:01;;;;;;;97.87;35.67;;;5.20;99.90;;;;;;5066682;28;20043;-85
2021/12/28 05:12:27;;;;;;;178.60;46.50;;;5.20;99.90;;;;;;5085006;28;20047;-84
2021/12/28 05:14:53;;;;;;;187.10;46.73;;;5.20;99.90;;;;;;5097862;28;20047;-84
2021/12/28 05:17:19;;;;;;;106.93;35.67;;;5.20;99.90;;;;;;5116328;28;20041;-83
2021/12/28 05:19:45;;;;;;;182.13;46.10;;;5.20;99.90;;;;;;5114963;28;20102;-83
2021/12/28 05:22:12;;;;;;;119.83;36.83;;;5.20;99.90;;;;;;5067175;28;20032;-84
2021/12/28 05:24:39;;;;;;;227.93;50.97;;;5.20;99.90;;;;;;5083393;28;20088;-84
2021/12/28 05:27:05;;;;;;;147.57;41.50;;;5.10;99.90;;;;;;5097446;28;20043;-81
2021/12/28 05:29:31;;;;;;;116.13;38.43;;;5.10;99.90;;;;;;5080888;28;20064;-83
2021/12/28 05:31:57;;;;;;;224.47;50.90;;;5.10;99.90;;;;;;5108414;28;20126;-82
2021/12/28 05:34:23;;;;;;;157.87;41.90;;;5.10;99.90;;;;;;5072656;28;20131;-83
2021/12/28 05:36:49;;;;;;;112.30;35.73;;;5.10;99.90;;;;;;5116277;28;20047;-83
2021/12/28 05:39:15;;;;;;;95.23;35.43;;;5.00;99.90;;;;;;5087191;27;20058;-84
2021/12/28 05:41:41;;;;;;;94.70;35.53;;;5.10;99.90;;;;;;5068842;27;20063;-83
2021/12/28 05:44:07;;;;;;;155.13;44.77;;;5.00;99.90;;;;;;5137448;27;20046;-85
2021/12/28 05:46:33;;;;;;;82.33;32.30;;;5.00;99.90;;;;;;5081505;27;20046;-83
2021/12/28 05:48:58;;;;;;;140.97;41.93;;;5.10;99.90;;;;;;5090299;27;20047;-84
2021/12/28 05:51:24;;;;;;;141.33;44.17;;;5.10;99.90;;;;;;5121671;27;20039;-84
2021/12/28 05:53:50;;;;;;;128.67;39.20;;;5.10;99.90;;;;;;5070990;27;20205;-84
2021/12/28 05:56:16;;;;;;;159.80;44.03;;;5.10;99.90;;;;;;5083992;27;20048;-84
2021/12/28 05:58:42;;;;;;;74.77;31.10;;;5.10;99.90;;;;;;5119708;27;20068;-83
2021/12/28 06:01:08;;;;;;;101.17;34.67;;;5.10;99.90;;;;;;5069760;27;20047;-84
2021/12/28 06:03:34;;;;;;;89.60;34.17;;;5.10;99.90;;;;;;5085077;27;20047;-83
2021/12/28 06:05:59;;;;;;;95.10;33.37;;;5.10;99.90;;;;;;5084878;27;20048;-83
2021/12/28 06:08:25;;;;;;;117.57;40.67;;;5.10;99.90;;;;;;5121572;27;20076;-83
2021/12/28 06:10:52;;;;;;;114.80;37.97;;;5.10;99.90;;;;;;5085266;27;20126;-83
2021/12/28 06:13:17;;;;;;;99.40;34.13;;;5.10;99.90;;;;;;5104950;27;20054;-83
2021/12/28 06:15:43;;;;;;;102.27;35.80;;;5.10;99.90;;;;;;5083797;27;20043;-83
2021/12/28 06:18:09;;;;;;;80.87;31.40;;;5.10;99.90;;;;;;5084985;27;20090;-83
2021/12/28 06:20:35;;;;;;;71.20;29.80;;;5.10;99.90;;;;;;5085679;27;20070;-83
2021/12/28 06:23:01;;;;;;;83.80;32.00;;;5.10;99.90;;;;;;5099879;27;20039;-83
2021/12/28 06:25:26;;;;;;;100.23;32.73;;;5.10;99.90;;;;;;5083926;27;20137;-83
2021/12/28 06:27:52;;;;;;;76.67;30.43;;;5.10;99.90;;;;;;5085424;27;20047;-82
2021/12/28 06:30:18;;;;;;;76.50;29.57;;;5.00;99.90;;;;;;5070924;27;20123;-82
2021/12/28 06:32:44;;;;;;;87.50;33.70;;;5.00;99.90;;;;;;5102598;27;20092;-82
2021/12/28 06:35:11;;;;;;;83.53;30.63;;;5.00;99.90;;;;;;5103967;27;20039;-83
2021/12/28 06:37:37;;;;;;;85.33;31.03;;;5.00;99.90;;;;;;5119904;27;20050;-84
2021/12/28 06:40:04;;;;;;;83.37;31.63;;;5.00;99.90;;;;;;5067908;27;20039;-83
2021/12/28 06:42:30;;;;;;;81.07;31.40;;;5.00;99.90;;;;;;5113404;27;20057;-83
2021/12/28 06:44:56;;;;;;;79.13;31.67;;;5.00;99.90;;;;;;5075240;27;20102;-83
2021/12/28 06:47:22;;;;;;;76.37;31.33;;;5.10;99.90;;;;;;5085145;27;20077;-86
2021/12/28 06:49:47;;;;;;;80.87;29.63;;;5.00;99.90;;;;;;5080660;27;20071;-84
2021/12/28 06:52:14;;;;;;;69.90;28.97;;;5.00;99.90;;;;;;5079383;27;20054;-82
2021/12/28 06:54:40;;;;;;;70.03;29.17;;;5.00;99.90;;;;;;5084037;27;20035;-87
2021/12/28 06:57:08;;;;;;;75.67;30.43;;;5.00;99.90;;;;;;5101049;27;20086;-87
2021/12/28 06:59:42;;;;;;;81.83;33.80;;;5.10;99.90;;;;;;5103155;27;20035;-84
2021/12/28 07:02:15;;;;;;;76.43;29.00;;;5.10;99.90;;;;;;5119150;27;20076;-84
2021/12/28 07:04:41;;;;;;;81.63;33.17;;;5.10;99.90;;;;;;5102263;27;20111;-84
2021/12/28 07:07:08;;;;;;;79.47;30.00;;;5.10;99.90;;;;;;5099866;27;20059;-84
2021/12/28 07:09:34;;;;;;;76.00;28.87;;;5.00;99.90;;;;;;5086397;27;20054;-84
2021/12/28 07:12:01;;;;;;;85.13;33.63;;;5.00;99.90;;;;;;5085809;27;20046;-84
2021/12/28 07:14:28;;;;;;;75.03;28.67;;;5.00;99.90;;;;;;5123008;27;20401;-83
2021/12/28 07:16:58;;;;;;;65.83;28.67;;;5.00;99.90;;;;;;5100179;27;20447;-83
2021/12/28 07:19:25;;;;;;;52.00;24.63;;;5.00;99.90;;;;;;5083348;27;20047;-84
2021/12/28 07:21:51;;;;;;;61.90;28.17;;;5.10;99.90;;;;;;5098715;27;20043;-80
2021/12/28 07:24:17;;;;;;;61.50;26.03;;;5.10;99.90;;;;;;5101753;27;20442;-86
2021/12/28 07:26:43;;;;;;;48.17;22.70;;;5.10;99.90;;;;;;5083320;27;20067;-89
2021/12/28 07:29:11;;;;;;;53.53;23.17;;;5.10;99.90;;;;;;5101952;27;20090;-82
2021/12/28 07:31:37;;;;;;;56.03;23.40;;;5.10;99.90;;;;;;5099445;27;20050;-85
2021/12/28 07:34:03;;;;;;;51.47;24.27;;;5.10;99.90;;;;;;5114637;27;20035;-85
2021/12/28 07:36:29;;;;;;;47.57;21.77;;;5.10;99.90;;;;;;5100622;27;20039;-86
2021/12/28 07:38:55;;;;;;;51.87;24.13;;;5.10;99.90;;;;;;5082680;27;20649;-85
2021/12/28 07:41:21;;;;;;;49.67;22.43;;;5.10;99.90;;;;;;5064718;27;20099;-86
2021/12/28 07:43:47;;;;;;;47.93;21.50;;;5.10;99.90;;;;;;5083121;27;20061;-86
2021/12/28 07:46:14;;;;;;;40.20;21.40;;;5.10;99.90;;;;;;5073885;27;20071;-85
2021/12/28 07:48:40;;;;;;;41.13;19.90;;;5.10;99.90;;;;;;5084164;27;20052;-86
2021/12/28 07:51:07;;;;;;;40.50;19.73;;;5.10;99.90;;;;;;5099379;27;21143;-85
2021/12/28 07:53:36;;;;;;;39.00;17.67;;;5.10;99.90;;;;;;5077053;27;20058;-85
2021/12/28 07:56:02;;;;;;;37.93;18.07;;;5.10;99.90;;;;;;5096087;27;20043;-83
2021/12/28 07:58:28;;;;;;;38.07;18.17;;;5.10;99.90;;;;;;5095675;27;20043;-85
2021/12/28 08:00:55;;;;;;;36.17;16.80;;;5.10;99.90;;;;;;5116820;28;20039;-86
2021/12/28 08:03:22;;;;;;;35.43;16.73;;;5.10;99.90;;;;;;5091813;27;20047;-84
2021/12/28 08:05:49;;;;;;;35.43;17.17;;;5.10;99.90;;;;;;5083268;27;20047;-88
2021/12/28 08:08:17;;;;;;;37.47;15.97;;;5.20;99.90;;;;;;5101473;27;20340;-84
2021/12/28 08:10:43;;;;;;;34.20;15.60;;;5.20;99.90;;;;;;5082486;27;20085;-86
2021/12/28 08:13:09;;;;;;;39.87;16.13;;;5.30;99.90;;;;;;5083006;27;20039;-84
2021/12/28 08:15:35;;;;;;;36.40;15.47;;;5.30;99.90;;;;;;5081222;27;20440;-84
2021/12/28 08:18:03;;;;;;;35.27;15.20;;;5.40;99.90;;;;;;5119258;27;20135;-80
2021/12/28 08:20:29;;;;;;;35.83;15.83;;;5.40;99.90;;;;;;5098372;27;20054;-84
2021/12/28 08:22:56;;;;;;;36.13;14.07;;;5.50;99.90;;;;;;5099005;27;20039;-85
2021/12/28 08:25:23;;;;;;;31.93;13.77;;;5.50;99.90;;;;;;5085051;27;20039;-85
2021/12/28 08:27:50;;;;;;;33.10;15.33;;;5.50;99.90;;;;;;5095261;28;20134;-85
2021/12/28 08:30:17;;;;;;;37.00;14.37;;;5.50;99.90;;;;;;5098129;27;20055;-85
2021/12/28 08:32:44;;;;;;;33.00;14.73;;;5.60;99.90;;;;;;5081120;27;20043;-85
2021/12/28 08:35:10;;;;;;;30.70;13.70;;;5.60;99.90;;;;;;5099375;28;20042;-85
2021/12/28 08:37:36;;;;;;;30.10;14.13;;;5.60;99.90;;;;;;5081436;28;20422;-85
2021/12/28 08:40:03;;;;;;;32.87;12.70;;;5.60;99.90;;;;;;5099739;27;20035;-86
2021/12/28 08:42:29;;;;;;;30.80;13.37;;;5.60;99.90;;;;;;5097962;27;20043;-85
2021/12/28 08:44:55;;;;;;;31.40;12.23;;;5.60;99.90;;;;;;5076583;28;20049;-85
2021/12/28 08:47:26;;;;;;;25.03;12.70;;;5.60;99.90;;;;;;5083110;28;20047;-83
2021/12/28 08:49:52;;;;;;;27.73;11.37;;;5.60;99.90;;;;;;5095813;28;20035;-85
2021/12/28 08:52:18;;;;;;;30.27;12.47;;;5.60;99.90;;;;;;5082204;28;20494;-85
2021/12/28 08:54:44;;;;;;;28.20;10.90;;;5.60;99.90;;;;;;5098348;28;20036;-85
2021/12/28 08:57:09;;;;;;;27.47;11.70;;;5.60;99.90;;;;;;5064927;28;20035;-85
2021/12/28 08:59:35;;;;;;;25.87;10.90;;;5.60;99.90;;;;;;5081160;28;20050;-85
2021/12/28 09:02:01;;;;;;;21.77;10.43;;;5.60;99.90;;;;;;5081170;28;20040;-85
2021/12/28 09:04:27;;;;;;;27.67;10.73;;;5.70;99.90;;;;;;5082312;28;20536;-85
2021/12/28 09:06:53;;;;;;;27.90;10.20;;;5.70;99.90;;;;;;5080899;28;20039;-88
2021/12/28 09:09:18;;;;;;;27.00;9.60;;;5.80;99.90;;;;;;5100227;28;20082;-81
2021/12/28 09:11:45;;;;;;;26.27;10.17;;;5.90;99.90;;;;;;5064825;27;20479;-77
2021/12/28 09:14:10;;;;;;;21.97;9.90;;;5.90;99.90;;;;;;5083716;27;20128;-81
2021/12/28 09:16:36;;;;;;;25.47;10.33;;;6.00;99.90;;;;;;5070057;27;20046;-80
2021/12/28 09:19:03;;;;;;;23.57;8.63;;;6.10;99.90;;;;;;5088338;27;20039;-81
2021/12/28 09:21:28;;;;;;;23.67;8.73;;;6.20;99.90;;;;;;5088304;27;20520;-82
2021/12/28 09:23:54;;;;;;;24.97;8.90;;;6.30;99.90;;;;;;5100226;27;20063;-80
2021/12/28 09:26:20;;;;;;;22.23;9.03;;;6.40;99.90;;;;;;5086556;27;20055;-85
2021/12/28 09:28:46;;;;;;;22.20;8.40;;;6.50;99.90;;;;;;5100857;27;20046;-82
2021/12/28 09:31:12;;;;;;;22.47;8.83;;;6.60;99.90;;;;;;5087489;27;20040;-81
2021/12/28 09:33:38;;;;;;;21.87;8.30;;;6.60;99.90;;;;;;5072725;27;20039;-82
2021/12/28 09:36:07;;;;;;;23.40;8.47;;;6.60;99.90;;;;;;5074480;27;20056;-82
2021/12/28 09:38:34;;;;;;;20.03;8.37;;;6.70;99.90;;;;;;5095014;27;20100;-82
2021/12/28 09:41:00;;;;;;;20.63;8.40;;;6.70;99.90;;;;;;5084153;27;20051;-82
2021/12/28 09:43:25;;;;;;;18.50;7.87;;;6.70;99.90;;;;;;5099878;27;20088;-82
2021/12/28 09:45:51;;;;;;;18.33;8.40;;;6.80;99.90;;;;;;5098266;27;20048;-82
2021/12/28 09:48:17;;;;;;;22.83;7.57;;;6.80;99.90;;;;;;5084397;27;20069;-82
2021/12/28 09:50:43;;;;;;;21.67;8.10;;;6.80;99.90;;;;;;5068883;27;20520;-81
2021/12/28 09:53:13;;;;;;;19.43;7.90;;;6.90;99.90;;;;;;5081013;27;20040;-81
2021/12/28 09:55:40;;;;;;;20.50;8.07;;;6.90;99.90;;;;;;5099515;27;20051;-81
2021/12/28 09:58:06;;;;;;;21.43;8.43;;;7.00;99.90;;;;;;5068908;27;20489;-82
2021/12/28 10:00:32;;;;;;;17.43;7.00;;;7.00;99.90;;;;;;5103541;27;20043;-80
2021/12/28 10:02:57;;;;;;;18.50;7.30;;;7.10;99.90;;;;;;5067191;27;20104;-81
2021/12/28 10:05:26;;;;;;;23.77;7.73;;;7.10;99.90;;;;;;5115706;27;20047;-81
2021/12/28 10:07:57;;;;;;;22.67;7.10;;;7.20;99.90;;;;;;5112955;27;20035;-81
2021/12/28 10:10:28;;;;;;;20.23;7.97;;;7.20;99.90;;;;;;5088789;27;20094;-81
2021/12/28 10:12:59;;;;;;;21.07;7.60;;;7.20;99.90;;;;;;5095545;27;20345;-80
2021/12/28 10:15:29;;;;;;;18.35;6.95;;;7.20;99.90;;;;;;5100442;27;20356;-80
2021/12/28 10:17:58;;;;;;;17.47;7.30;;;7.20;99.90;;;;;;5108899;27;20043;-80
2021/12/28 10:20:40;;;;;;;16.50;6.80;;;7.30;99.90;;;;;;5101530;27;20054;-80
2021/12/28 10:23:11;;;;;;;;;;;7.30;99.90;;;;;;5107598;27;20028;-81
2021/12/28 10:25:40;;;;;;;16.60;6.43;;;7.30;99.90;;;;;;5101593;27;19926;-79
2021/12/28 10:28:13;;;;;;;78.37;13.87;;;7.30;99.90;;;;;;5099627;27;20047;-85
2021/12/28 10:30:41;;;;;;;16.23;7.47;;;7.30;99.90;;;;;;5110362;27;20047;-79
2021/12/28 10:33:12;;;;;;;19.60;8.93;;;7.20;99.90;;;;;;5115166;27;20031;-81
2021/12/28 10:35:50;;;;;;;21.00;7.97;;;7.10;99.90;;;;;;5102206;27;20039;-81
2021/12/28 10:38:22;;;;;;;27.43;10.43;;;7.10;99.90;;;;;;5086520;27;20050;-82
2021/12/28 10:40:50;;;;;;;;;;;7.00;99.90;;;;;;5098639;27;20127;-81
2021/12/28 10:43:20;;;;;;;25.17;9.00;;;7.00;99.90;;;;;;5087202;27;19990;-81
2021/12/28 10:45:54;;;;;;;24.27;9.43;;;7.00;99.90;;;;;;5108453;27;20096;-81
2021/12/28 10:48:26;;;;;;;26.87;9.50;;;6.90;99.90;;;;;;5100722;27;20043;-81
2021/12/28 10:51:01;;;;;;;23.63;9.73;;;6.90;99.90;;;;;;5096247;27;20038;-81
2021/12/28 10:53:36;;;;;;;30.23;11.40;;;6.90;99.90;;;;;;5094750;27;20047;-82
2021/12/28 10:56:08;;;;;;;24.57;11.40;;;7.00;99.90;;;;;;5101360;27;20066;-82
2021/12/28 10:58:41;;;;;;;34.70;12.07;;;6.90;99.90;;;;;;5096069;27;20046;-81
2021/12/28 11:01:14;;;;;;;36.70;12.70;;;6.90;99.90;;;;;;5111647;27;20078;-79
2021/12/28 11:03:45;;;;;;;31.17;12.13;;;6.90;99.90;;;;;;5100684;27;20053;-78
2021/12/28 11:06:23;;;;;;;30.67;11.63;;;7.00;99.90;;;;;;5095642;27;20089;-80
2021/12/28 11:08:52;;;;;;;26.37;11.60;;;7.00;99.90;;;;;;5100290;27;20360;-79
2021/12/28 11:11:21;;;;;;;30.60;11.90;;;7.00;99.90;;;;;;5120612;27;20055;-79
2021/12/28 11:13:48;;;;;;;40.60;14.73;;;7.00;99.90;;;;;;5115797;27;20095;-79
2021/12/28 11:16:15;;;;;;;39.00;14.50;;;7.00;99.90;;;;;;5099058;27;20130;-79
2021/12/28 11:18:46;;;;;;;33.33;12.40;;;7.00;99.90;;;;;;5097655;27;20115;-79
2021/12/28 11:21:30;;;;;;;37.87;13.03;;;7.00;99.90;;;;;;5116457;27;20253;-79
2021/12/28 11:24:03;;;;;;;31.73;12.43;;;7.00;99.90;;;;;;5099886;27;20104;-79
2021/12/28 11:26:37;;;;;;;31.30;13.50;;;7.00;99.90;;;;;;5098636;27;20063;-79
2021/12/28 11:29:16;;;;;;;27.97;12.03;;;7.10;99.90;;;;;;5103639;27;20083;-78
2021/12/28 11:31:45;;;;;;;45.83;14.90;;;7.10;99.90;;;;;;5097891;27;20050;-79
2021/12/28 11:34:19;;;;;;;47.77;16.90;;;7.20;99.90;;;;;;5093358;27;20047;-78
2021/12/28 11:36:54;;;;;;;40.47;16.57;;;7.20;99.90;;;;;;5108968;27;20051;-78
2021/12/28 11:39:32;;;;;;;39.90;15.80;;;7.20;99.90;;;;;;5114209;27;20039;-79
2021/12/28 11:41:59;;;;;;;41.83;15.77;;;7.20;99.90;;;;;;5093703;27;20078;-78
2021/12/28 11:44:26;;;;;;;41.47;14.90;;;7.10;99.90;;;;;;5098891;27;20061;-78
2021/12/28 11:46:55;;;;;;;34.70;13.13;;;7.20;99.90;;;;;;5099347;27;20062;-78
2021/12/28 11:49:26;;;;;;;41.27;14.87;;;7.20;99.90;;;;;;5100103;27;20057;-78
2021/12/28 11:51:53;;;;;;;34.90;15.30;;;7.20;99.90;;;;;;5096910;27;20114;-79
2021/12/28 11:54:21;;;;;;;39.37;16.10;;;7.20;99.90;;;;;;5094843;27;20047;-79
2021/12/28 11:56:59;;;;;;;33.80;14.90;;;7.20;99.90;;;;;;5117391;27;20118;-83
2021/12/28 11:59:28;;;;;;;34.20;15.47;;;7.20;99.90;;;;;;5117059;27;20110;-80
2021/12/28 12:02:05;;;;;;;40.13;17.03;;;7.30;99.90;;;;;;5107043;27;20057;-77
2021/12/28 12:04:30;;;;;;;35.10;15.60;;;7.30;99.90;;;;;;5099209;27;20543;-79
2021/12/28 12:06:57;;;;;;;30.10;15.23;;;7.30;99.90;;;;;;5098197;27;20047;-81
2021/12/28 12:09:24;;;;;;;28.17;13.33;;;7.30;99.90;;;;;;5114217;27;20039;-81
2021/12/28 12:12:10;;;;;;;30.50;14.33;;;7.40;99.90;;;;;;5114302;27;20107;-80
2021/12/28 12:14:58;;;;;;;32.90;14.07;;;7.40;99.90;;;;;;5097151;27;20031;-76
2021/12/28 12:17:41;;;;;;;33.07;16.53;;;7.40;99.90;;;;;;5099833;27;20035;-78
2021/12/28 12:20:24;;;;;;;30.90;15.90;;;7.40;99.90;;;;;;5097118;28;20028;-79
2021/12/28 12:23:07;;;;;;;30.67;15.20;;;7.40;99.90;;;;;;5112756;27;20081;-79
2021/12/28 12:25:42;;;;;;;26.90;14.03;;;7.40;99.90;;;;;;5089256;28;20051;-79
2021/12/28 12:28:09;;;;;;;29.90;13.90;;;7.50;99.90;;;;;;5108359;27;20116;-80
2021/12/28 12:30:51;;;;;;;30.03;15.83;;;7.50;99.90;;;;;;5082050;28;20222;-80
2021/12/28 12:33:18;;;;;;;27.38;14.55;;;7.50;99.90;;;;;;5097754;27;20481;-80
2021/12/28 12:36:02;;;;;;;33.27;16.73;;;7.60;99.90;;;;;;5081544;27;20038;-79
2021/12/28 12:38:28;;;;;;;45.43;17.43;;;7.60;99.90;;;;;;5098475;27;20047;-80
2021/12/28 12:41:00;;;;;;;38.77;18.03;;;7.60;99.90;;;;;;5097293;27;20038;-80